createdAt,value
2023-03-29T00:01:52.084Z,17.11
2023-03-29T00:04:46.131Z,17.07
2023-03-29T00:07:42.893Z,17.06
2023-03-29T00:10:37.314Z,17.04
2023-03-29T00:13:31.768Z,17.05
2023-03-29T00:16:25.860Z,17.03
2023-03-29T00:19:19.966Z,17.01
2023-03-29T00:22:14.087Z,17.03
2023-03-29T00:25:08.651Z,17.03
2023-03-29T00:28:02.734Z,17.01
2023-03-29T00:31:04.671Z,17.00
2023-03-29T00:33:58.698Z,16.97
2023-03-29T00:36:53.107Z,16.95
2023-03-29T00:39:47.182Z,16.96
2023-03-29T00:43:01.057Z,16.97
2023-03-29T00:45:55.119Z,16.95
2023-03-29T00:48:50.128Z,16.94
2023-03-29T00:51:45.843Z,16.99
2023-03-29T00:54:41.282Z,16.94
2023-03-29T00:57:37.346Z,16.94
2023-03-29T01:00:36.388Z,16.91
2023-03-29T01:03:25.067Z,16.87
2023-03-29T01:06:24.701Z,16.91
2023-03-29T01:09:21.052Z,16.92
2023-03-29T01:12:20.838Z,16.93
2023-03-29T01:15:19.340Z,16.91
2023-03-29T01:18:13.980Z,16.91
2023-03-29T01:21:24.196Z,16.91
2023-03-29T01:24:55.035Z,16.92
2023-03-29T01:27:57.649Z,16.91
2023-03-29T01:30:39.920Z,16.91
2023-03-29T01:33:40.479Z,16.92
2023-03-29T01:36:44.285Z,16.90
2023-03-29T01:39:38.091Z,16.90
2023-03-29T01:42:46.690Z,16.88
2023-03-29T01:45:47.334Z,16.88
2023-03-29T01:48:49.906Z,16.87
2023-03-29T01:51:49.882Z,16.88
2023-03-29T01:54:56.189Z,16.85
2023-03-29T01:57:52.141Z,16.85
2023-03-29T02:00:46.778Z,16.84
2023-03-29T02:03:45.115Z,16.83
2023-03-29T02:06:42.870Z,16.82
2023-03-29T02:09:37.337Z,16.86
2023-03-29T02:12:32.151Z,16.85
2023-03-29T02:15:26.413Z,16.83
2023-03-29T02:18:21.508Z,16.82
2023-03-29T02:21:22.342Z,16.80
2023-03-29T02:24:18.974Z,16.79
2023-03-29T02:27:13.088Z,16.77
2023-03-29T02:30:08.877Z,16.78
2023-03-29T02:33:10.769Z,16.78
2023-03-29T02:36:10.317Z,16.78
2023-03-29T02:39:08.064Z,16.79
2023-03-29T02:42:04.144Z,16.79
2023-03-29T02:45:02.122Z,16.77
2023-03-29T02:47:58.721Z,16.77
2023-03-29T02:50:57.891Z,16.80
2023-03-29T02:53:59.296Z,16.78
2023-03-29T02:56:59.633Z,16.78
2023-03-29T02:59:53.642Z,16.79
2023-03-29T03:02:47.475Z,16.73
2023-03-29T03:05:41.701Z,16.77
2023-03-29T03:08:35.418Z,16.75
2023-03-29T03:11:29.156Z,16.80
2023-03-29T03:14:24.017Z,16.71
2023-03-29T03:17:19.780Z,16.70
2023-03-29T03:20:15.441Z,16.70
2023-03-29T03:23:10.646Z,16.69
2023-03-29T03:26:04.695Z,16.70
2023-03-29T03:28:58.933Z,16.68
2023-03-29T03:31:54.243Z,16.67
2023-03-29T03:34:49.709Z,16.70
2023-03-29T03:37:44.122Z,16.69
2023-03-29T03:40:38.432Z,16.67
2023-03-29T03:43:32.937Z,16.68
2023-03-29T03:46:29.066Z,16.67
2023-03-29T03:49:23.401Z,16.69
2023-03-29T03:52:17.418Z,16.66
2023-03-29T03:55:12.050Z,16.68
2023-03-29T03:58:05.604Z,16.67
2023-03-29T04:00:59.806Z,16.62
2023-03-29T04:03:56.871Z,16.61
2023-03-29T04:06:50.545Z,16.63
2023-03-29T04:09:45.136Z,16.62
2023-03-29T04:12:39.237Z,16.63
2023-03-29T04:15:34.182Z,16.64
2023-03-29T04:18:28.446Z,16.61
2023-03-29T04:21:22.091Z,16.63
2023-03-29T04:24:16.049Z,16.60
2023-03-29T04:27:09.879Z,16.62
2023-03-29T04:30:03.751Z,16.59
2023-03-29T04:32:57.793Z,16.58
2023-03-29T04:35:51.992Z,16.61
2023-03-29T04:38:47.818Z,16.54
2023-03-29T04:41:46.581Z,16.56
2023-03-29T04:44:42.208Z,16.55
2023-03-29T04:47:39.530Z,16.59
2023-03-29T04:50:33.322Z,16.56
2023-03-29T04:53:27.117Z,16.51
2023-03-29T04:56:20.659Z,16.57
2023-03-29T04:59:14.239Z,16.69
2023-03-29T05:02:08.531Z,16.60
2023-03-29T05:05:02.546Z,16.62
2023-03-29T05:07:56.592Z,16.60
2023-03-29T05:10:50.820Z,16.55
2023-03-29T05:13:44.822Z,16.56
2023-03-29T05:16:39.164Z,16.53
2023-03-29T05:19:33.628Z,16.55
2023-03-29T05:22:28.448Z,16.54
2023-03-29T05:25:23.375Z,16.50
2023-03-29T05:28:18.333Z,16.52
2023-03-29T05:31:17.092Z,16.48
2023-03-29T05:34:11.723Z,16.46
2023-03-29T05:37:05.740Z,16.51
2023-03-29T05:40:06.032Z,16.51
2023-03-29T05:43:02.632Z,16.51
2023-03-29T05:45:58.521Z,16.52
2023-03-29T05:48:52.201Z,16.53
2023-03-29T05:51:46.357Z,16.52
2023-03-29T05:54:41.418Z,16.51
2023-03-29T05:57:37.904Z,16.50
2023-03-29T06:00:34.308Z,16.49
2023-03-29T06:03:29.784Z,16.48
2023-03-29T06:06:23.645Z,16.50
2023-03-29T06:09:17.424Z,16.53
2023-03-29T06:12:12.190Z,16.52
2023-03-29T06:15:07.002Z,16.55
2023-03-29T06:18:00.799Z,16.54
2023-03-29T06:20:55.397Z,16.54
2023-03-29T06:23:48.989Z,16.55
2023-03-29T06:26:43.215Z,16.54
2023-03-29T06:29:37.021Z,16.56
2023-03-29T06:32:30.675Z,16.52
2023-03-29T06:35:24.789Z,16.55
2023-03-29T06:38:19.523Z,16.61
2023-03-29T06:41:14.894Z,16.53
2023-03-29T06:44:10.303Z,16.53
2023-03-29T06:47:04.352Z,16.47
2023-03-29T06:49:57.922Z,16.51
2023-03-29T06:52:52.587Z,16.50
2023-03-29T06:55:46.409Z,16.52
2023-03-29T06:58:40.806Z,16.51
2023-03-29T07:01:34.775Z,16.51
2023-03-29T07:04:29.270Z,16.51
2023-03-29T07:07:24.206Z,16.53
2023-03-29T07:10:18.164Z,16.66
2023-03-29T07:13:13.365Z,16.64
2023-03-29T07:16:07.990Z,16.70
2023-03-29T07:19:01.745Z,16.87
2023-03-29T07:21:56.119Z,16.88
2023-03-29T07:24:49.706Z,16.59
2023-03-29T07:27:45.339Z,16.76
2023-03-29T07:30:39.162Z,16.51
2023-03-29T07:33:32.847Z,16.73
2023-03-29T07:36:28.627Z,16.77
2023-03-29T07:39:22.492Z,16.78
2023-03-29T07:42:16.319Z,16.75
2023-03-29T07:45:13.697Z,16.90
2023-03-29T07:48:09.939Z,17.02
2023-03-29T07:51:03.876Z,17.02
2023-03-29T07:53:57.762Z,17.00
2023-03-29T07:56:51.474Z,16.93
2023-03-29T07:59:45.270Z,16.94
2023-03-29T08:02:39.192Z,16.93
2023-03-29T08:05:40.682Z,16.98
2023-03-29T08:08:35.912Z,16.97
2023-03-29T08:11:29.698Z,17.01
2023-03-29T08:14:23.762Z,17.09
2023-03-29T08:17:17.475Z,17.08
2023-03-29T08:20:10.712Z,17.02
2023-03-29T08:23:04.436Z,16.96
2023-03-29T08:25:58.356Z,16.94
2023-03-29T08:28:52.160Z,16.95
2023-03-29T08:31:46.040Z,16.93
2023-03-29T08:34:39.648Z,16.95
2023-03-29T08:37:33.788Z,17.31
2023-03-29T08:40:31.171Z,17.04
2023-03-29T08:43:53.596Z,16.92
2023-03-29T08:46:55.865Z,16.89
2023-03-29T08:49:54.308Z,16.87
2023-03-29T08:52:54.535Z,16.84
2023-03-29T08:55:51.467Z,16.90
2023-03-29T08:58:48.664Z,16.93
2023-03-29T09:01:43.208Z,16.89
2023-03-29T09:04:59.979Z,16.88
2023-03-29T09:07:52.540Z,16.89
2023-03-29T09:10:53.454Z,16.86
2023-03-29T09:13:59.750Z,16.88
2023-03-29T09:16:56.580Z,16.88
2023-03-29T09:19:58.618Z,16.84
2023-03-29T09:23:00.484Z,16.85
2023-03-29T09:26:03.309Z,16.92
2023-03-29T09:29:10.328Z,16.86
2023-03-29T09:32:14.279Z,17.04
2023-03-29T09:35:23.104Z,16.93
2023-03-29T09:38:19.497Z,16.98
2023-03-29T09:41:26.656Z,16.97
2023-03-29T09:44:31.209Z,16.81
2023-03-29T09:47:30.588Z,16.84
2023-03-29T09:50:31.867Z,16.78
2023-03-29T09:53:27.187Z,16.77
2023-03-29T09:56:21.544Z,16.75
2023-03-29T09:59:16.602Z,16.75
2023-03-29T10:02:13.563Z,16.72
2023-03-29T10:05:16.912Z,16.72
2023-03-29T10:08:23.426Z,16.74
2023-03-29T10:11:24.427Z,15.70
2023-03-29T10:14:22.413Z,14.59
2023-03-29T10:17:21.815Z,15.94
2023-03-29T10:20:20.203Z,16.08
2023-03-29T10:23:21.168Z,14.28
2023-03-29T10:26:24.047Z,14.07
2023-03-29T10:29:18.413Z,15.81
2023-03-29T10:32:27.706Z,16.20
2023-03-29T10:35:29.175Z,16.32
2023-03-29T10:38:28.204Z,16.33
2023-03-29T10:41:24.142Z,16.34
2023-03-29T10:44:35.666Z,16.37
2023-03-29T10:47:35.007Z,16.37
2023-03-29T10:50:35.384Z,16.45
2023-03-29T10:53:34.688Z,16.53
2023-03-29T10:56:46.641Z,16.51
2023-03-29T10:59:54.160Z,16.54
2023-03-29T11:03:20.978Z,16.53
2023-03-29T11:06:25.978Z,16.55
2023-03-29T11:09:49.900Z,16.48
2023-03-29T11:12:51.363Z,16.47
2023-03-29T11:16:01.082Z,16.45
2023-03-29T11:19:27.835Z,16.46
2023-03-29T11:22:31.246Z,16.42
2023-03-29T11:25:39.270Z,16.48
2023-03-29T11:28:47.483Z,16.44
2023-03-29T11:31:53.949Z,16.37
2023-03-29T11:35:03.385Z,16.38
2023-03-29T11:38:06.906Z,16.46
2023-03-29T11:41:06.560Z,16.41
2023-03-29T11:44:06.702Z,16.41
2023-03-29T11:47:07.197Z,16.54
2023-03-29T11:50:06.479Z,16.50
2023-03-29T11:53:07.242Z,16.54
2023-03-29T11:56:08.712Z,16.40
2023-03-29T11:59:14.422Z,16.42
2023-03-29T12:02:17.900Z,16.53
2023-03-29T12:05:38.033Z,16.50
2023-03-29T12:08:36.424Z,16.42
2023-03-29T12:11:39.717Z,16.37
2023-03-29T12:15:00.007Z,16.37
2023-03-29T12:18:03.878Z,16.38
2023-03-29T12:21:04.594Z,16.36
2023-03-29T12:23:58.540Z,16.38
2023-03-29T12:27:12.583Z,16.39
2023-03-29T12:30:44.840Z,16.36
2023-03-29T12:34:07.697Z,16.39
2023-03-29T12:37:23.426Z,16.44
2023-03-29T12:41:11.509Z,16.33
2023-03-29T12:43:43.712Z,16.27
2023-03-29T12:46:37.890Z,16.28
2023-03-29T12:49:36.375Z,16.31
2023-03-29T12:52:34.572Z,16.28
2023-03-29T12:55:49.209Z,16.38
2023-03-29T12:58:56.764Z,16.19
2023-03-29T13:02:08.544Z,16.40
2023-03-29T13:05:04.890Z,16.30
2023-03-29T13:07:58.599Z,16.33
2023-03-29T13:10:57.660Z,16.27
2023-03-29T13:13:53.371Z,16.24
2023-03-29T13:16:47.261Z,16.22
2023-03-29T13:19:52.341Z,16.25
2023-03-29T13:23:00.863Z,16.32
2023-03-29T13:26:17.522Z,16.28
2023-03-29T13:29:38.356Z,16.38
2023-03-29T13:32:49.029Z,16.24
2023-03-29T13:35:54.840Z,16.24
2023-03-29T13:38:57.593Z,16.18
2023-03-29T13:41:54.695Z,16.27
2023-03-29T13:44:50.140Z,16.29
2023-03-29T13:47:58.811Z,16.19
2023-03-29T13:51:02.273Z,16.11
2023-03-29T13:54:02.627Z,16.12
2023-03-29T13:57:06.739Z,16.12
2023-03-29T14:00:01.430Z,16.11
2023-03-29T14:03:18.920Z,16.11
2023-03-29T14:06:17.664Z,16.21
2023-03-29T14:09:15.434Z,16.37
2023-03-29T14:12:33.877Z,16.14
2023-03-29T14:15:40.521Z,16.08
2023-03-29T14:19:01.199Z,16.22
2023-03-29T14:21:55.846Z,16.20
2023-03-29T14:24:57.186Z,16.18
2023-03-29T14:27:51.018Z,16.18
2023-03-29T14:30:49.810Z,16.03
2023-03-29T14:33:43.812Z,16.10
2023-03-29T14:36:39.293Z,16.11
2023-03-29T14:39:35.359Z,15.94
2023-03-29T14:42:31.136Z,15.95
2023-03-29T14:45:25.759Z,16.01
2023-03-29T14:48:19.914Z,15.97
2023-03-29T14:51:14.462Z,15.96
2023-03-29T14:54:29.491Z,15.94
2023-03-29T14:57:47.317Z,15.91
2023-03-29T15:00:49.165Z,15.88
2023-03-29T15:03:57.002Z,15.89
2023-03-29T15:06:55.545Z,15.90
2023-03-29T15:09:52.374Z,15.86
2023-03-29T15:12:47.763Z,15.88
2023-03-29T15:15:47.916Z,15.91
2023-03-29T15:18:45.560Z,15.88
2023-03-29T15:21:43.387Z,15.87
2023-03-29T15:24:49.812Z,15.89
2023-03-29T15:27:49.936Z,15.92
2023-03-29T15:31:00.815Z,15.88
2023-03-29T15:34:09.873Z,15.84
2023-03-29T15:37:04.110Z,15.85
2023-03-29T15:39:58.886Z,15.78
2023-03-29T15:42:55.181Z,15.74
2023-03-29T15:45:49.217Z,15.78
2023-03-29T15:48:43.398Z,15.80
2023-03-29T15:51:37.357Z,15.77
2023-03-29T15:54:34.422Z,15.82
2023-03-29T15:57:28.445Z,15.87
2023-03-29T16:00:23.062Z,15.89
2023-03-29T16:03:18.408Z,15.84
2023-03-29T16:06:14.797Z,15.95
2023-03-29T16:09:08.772Z,15.95
2023-03-29T16:12:02.370Z,15.90
2023-03-29T16:14:56.180Z,15.85
2023-03-29T16:17:49.945Z,15.79
2023-03-29T16:20:43.890Z,13.11
2023-03-29T16:23:37.842Z,13.33
2023-03-29T16:26:31.711Z,14.99
2023-03-29T16:29:25.973Z,15.30
2023-03-29T16:32:20.059Z,15.36
2023-03-29T16:35:22.966Z,15.41
2023-03-29T16:38:16.649Z,15.43
2023-03-29T16:41:15.097Z,15.48
2023-03-29T16:44:22.485Z,15.48
2023-03-29T16:47:00.257Z,15.45
2023-03-29T16:49:53.914Z,15.47
2023-03-29T16:52:48.889Z,15.46
2023-03-29T16:55:42.656Z,15.47
2023-03-29T16:58:36.242Z,15.44
2023-03-29T17:01:30.057Z,15.47
2023-03-29T17:04:23.836Z,15.49
2023-03-29T17:07:17.526Z,15.51
2023-03-29T17:10:13.392Z,15.48
2023-03-29T17:13:08.119Z,15.49
2023-03-29T17:16:02.391Z,15.52
2023-03-29T17:18:56.829Z,15.46
2023-03-29T17:21:50.570Z,15.49
2023-03-29T17:24:44.567Z,15.50
2023-03-29T17:27:38.751Z,15.54
2023-03-29T17:30:34.253Z,15.59
2023-03-29T17:33:28.222Z,15.64
2023-03-29T17:36:25.066Z,15.81
2023-03-29T17:39:19.313Z,15.73
2023-03-29T17:42:13.138Z,15.68
2023-03-29T17:45:09.203Z,15.68
2023-03-29T17:48:06.226Z,15.75
2023-03-29T17:51:00.842Z,15.67
2023-03-29T17:53:57.099Z,15.91
2023-03-29T17:56:51.030Z,15.97
2023-03-29T17:59:28.152Z,16.00
2023-03-29T18:02:24.930Z,16.02
2023-03-29T18:05:20.101Z,16.07
2023-03-29T18:08:14.996Z,16.06
2023-03-29T18:11:16.114Z,16.01
2023-03-29T18:14:10.217Z,16.10
2023-03-29T18:17:04.289Z,16.10
2023-03-29T18:20:00.112Z,16.13
2023-03-29T18:22:55.294Z,16.09
2023-03-29T18:25:49.654Z,16.15
2023-03-29T18:28:46.572Z,16.22
2023-03-29T18:31:41.067Z,16.21
2023-03-29T18:34:35.386Z,16.22
2023-03-29T18:37:29.820Z,16.33
2023-03-29T18:40:24.872Z,16.23
2023-03-29T18:43:19.254Z,16.27
2023-03-29T18:46:13.574Z,16.28
2023-03-29T18:49:08.709Z,16.29
2023-03-29T18:52:02.945Z,16.27
2023-03-29T18:54:56.807Z,16.31
2023-03-29T18:57:51.212Z,16.47
2023-03-29T19:00:46.083Z,16.57
2023-03-29T19:03:41.368Z,16.58
2023-03-29T19:06:35.875Z,16.55
2023-03-29T19:09:30.889Z,16.59
2023-03-29T19:12:25.168Z,16.54
2023-03-29T19:15:19.633Z,16.57
2023-03-29T19:18:13.894Z,16.54
2023-03-29T19:21:07.765Z,16.57
2023-03-29T19:24:04.980Z,16.54
2023-03-29T19:27:00.265Z,16.52
2023-03-29T19:29:54.517Z,16.54
2023-03-29T19:32:48.758Z,16.55
2023-03-29T19:35:43.411Z,16.86
2023-03-29T19:38:38.071Z,16.63
2023-03-29T19:41:32.417Z,16.70
2023-03-29T19:44:28.062Z,16.65
2023-03-29T19:47:22.425Z,16.73
2023-03-29T19:50:16.628Z,16.64
2023-03-29T19:53:11.321Z,16.69
2023-03-29T19:56:06.423Z,16.57
2023-03-29T19:59:00.831Z,16.70
2023-03-29T20:01:56.883Z,16.57
2023-03-29T20:05:38.332Z,16.44
2023-03-29T20:08:05.817Z,16.62
2023-03-29T20:11:05.149Z,16.71
2023-03-29T20:14:00.138Z,16.71
2023-03-29T20:16:54.728Z,16.61
2023-03-29T20:19:48.754Z,16.72
2023-03-29T20:22:45.492Z,16.75
2023-03-29T20:25:42.473Z,16.72
2023-03-29T20:28:56.872Z,16.71
2023-03-29T20:31:51.506Z,16.82
2023-03-29T20:34:46.046Z,16.72
2023-03-29T20:37:41.429Z,16.73
2023-03-29T20:40:47.183Z,16.74
2023-03-29T20:43:41.630Z,16.96
2023-03-29T20:46:37.662Z,16.78
2023-03-29T20:49:37.035Z,16.88
2023-03-29T20:52:36.044Z,16.96
2023-03-29T20:55:30.540Z,16.75
2023-03-29T20:58:19.251Z,14.56
2023-03-29T21:01:14.198Z,12.63
2023-03-29T21:04:09.453Z,15.13
2023-03-29T21:07:05.131Z,16.23
2023-03-29T21:10:01.095Z,16.36
2023-03-29T21:12:59.971Z,16.43
2023-03-29T21:15:54.045Z,16.67
2023-03-29T21:18:48.412Z,16.68
2023-03-29T21:21:42.752Z,16.56
2023-03-29T21:24:37.864Z,16.63
2023-03-29T21:27:31.765Z,16.66
2023-03-29T21:30:25.759Z,16.86
2023-03-29T21:33:19.538Z,16.92
2023-03-29T21:36:13.974Z,16.93
2023-03-29T21:39:08.231Z,16.85
2023-03-29T21:42:02.031Z,16.81
2023-03-29T21:44:56.379Z,16.78
2023-03-29T21:47:50.604Z,16.79
2023-03-29T21:50:45.249Z,16.77
2023-03-29T21:53:39.359Z,16.86
2023-03-29T21:56:33.375Z,16.87
2023-03-29T21:59:27.984Z,16.91
2023-03-29T22:02:21.763Z,16.87
2023-03-29T22:05:16.313Z,16.80
2023-03-29T22:08:10.788Z,16.77
2023-03-29T22:11:11.410Z,16.78
2023-03-29T22:14:07.644Z,16.91
2023-03-29T22:17:01.461Z,16.82
2023-03-29T22:19:56.699Z,16.71
2023-03-29T22:22:52.374Z,16.69
2023-03-29T22:25:46.831Z,16.69
2023-03-29T22:28:41.764Z,16.70
2023-03-29T22:31:37.810Z,16.70
2023-03-29T22:34:32.063Z,16.70
2023-03-29T22:37:26.334Z,16.75
2023-03-29T22:40:20.817Z,16.69
2023-03-29T22:43:15.132Z,16.68
2023-03-29T22:46:11.298Z,16.69
2023-03-29T22:49:06.101Z,16.67
2023-03-29T22:52:01.361Z,16.67
2023-03-29T22:54:41.700Z,16.64
2023-03-29T22:57:35.941Z,16.66
2023-03-29T23:00:30.142Z,16.64
2023-03-29T23:03:16.749Z,16.65
2023-03-29T23:06:11.647Z,16.64
2023-03-29T23:09:05.828Z,16.65
2023-03-29T23:12:01.160Z,16.65
2023-03-29T23:14:55.794Z,16.60
2023-03-29T23:17:50.752Z,16.60
2023-03-29T23:20:48.392Z,16.61
2023-03-29T23:23:43.401Z,16.61
2023-03-29T23:26:37.610Z,16.62
2023-03-29T23:29:31.900Z,16.60
2023-03-29T23:32:26.228Z,16.60
2023-03-29T23:35:21.261Z,16.59
2023-03-29T23:38:15.308Z,16.61
2023-03-29T23:41:12.913Z,16.59
2023-03-29T23:44:07.760Z,16.58
2023-03-29T23:47:02.280Z,16.59
2023-03-29T23:49:56.636Z,16.57
2023-03-29T23:52:52.175Z,16.58
2023-03-29T23:55:46.428Z,16.58
2023-03-29T23:58:41.318Z,16.58
